createdAt,value
2023-04-04T00:00:53.057Z,53.40
2023-04-04T00:02:26.233Z,53.50
2023-04-04T00:03:59.476Z,53.40
2023-04-04T00:05:33.256Z,53.30
2023-04-04T00:07:06.437Z,53.30
2023-04-04T00:08:39.533Z,53.40
2023-04-04T00:10:12.764Z,53.40
2023-04-04T00:11:47.604Z,53.40
2023-04-04T00:13:20.984Z,53.50
2023-04-04T00:14:53.177Z,53.60
2023-04-04T00:16:26.356Z,53.40
2023-04-04T00:17:59.486Z,53.50
2023-04-04T00:19:32.610Z,53.50
2023-04-04T00:21:05.953Z,53.50
2023-04-04T00:22:39.124Z,53.50
2023-04-04T00:24:12.407Z,53.60
2023-04-04T00:25:51.638Z,53.60
2023-04-04T00:27:26.154Z,53.90
2023-04-04T00:28:59.439Z,53.80
2023-04-04T00:30:32.732Z,53.80
2023-04-04T00:32:06.461Z,53.90
2023-04-04T00:33:39.875Z,53.80
2023-04-04T00:35:13.732Z,53.90
2023-04-04T00:36:47.679Z,53.90
2023-04-04T00:38:19.865Z,54.00
2023-04-04T00:39:53.039Z,54.00
2023-04-04T00:41:26.374Z,54.00
2023-04-04T00:43:01.428Z,54.00
2023-04-04T00:44:35.658Z,54.00
2023-04-04T00:46:14.796Z,54.10
2023-04-04T00:47:49.110Z,54.60
2023-04-04T00:49:22.194Z,53.90
2023-04-04T00:50:54.332Z,53.90
2023-04-04T00:52:28.061Z,53.90
2023-04-04T00:54:01.829Z,54.10
2023-04-04T00:55:36.909Z,54.10
2023-04-04T00:57:10.012Z,54.20
2023-04-04T00:58:45.635Z,54.40
2023-04-04T01:00:18.509Z,54.10
2023-04-04T01:01:51.716Z,54.00
2023-04-04T01:03:24.840Z,53.90
2023-04-04T01:04:58.066Z,54.00
2023-04-04T01:06:32.704Z,53.90
2023-04-04T01:08:06.931Z,54.00
2023-04-04T01:09:40.919Z,54.10
2023-04-04T01:11:14.232Z,54.20
2023-04-04T01:12:47.679Z,54.20
2023-04-04T01:14:22.472Z,54.30
2023-04-04T01:15:56.061Z,54.40
2023-04-04T01:17:30.579Z,54.30
2023-04-04T01:19:09.704Z,54.40
2023-04-04T01:20:53.609Z,54.50
2023-04-04T01:22:30.487Z,54.50
2023-04-04T01:24:05.878Z,54.50
2023-04-04T01:25:49.712Z,54.50
2023-04-04T01:27:22.213Z,54.40
2023-04-04T01:29:03.175Z,54.50
2023-04-04T01:30:41.158Z,54.30
2023-04-04T01:32:20.880Z,54.40
2023-04-04T01:34:08.471Z,54.40
2023-04-04T01:35:51.888Z,54.40
2023-04-04T01:37:35.489Z,54.40
2023-04-04T01:39:24.190Z,54.40
2023-04-04T01:41:04.353Z,54.40
2023-04-04T01:42:39.803Z,54.40
2023-04-04T01:44:15.820Z,54.40
2023-04-04T01:45:50.627Z,54.30
2023-04-04T01:47:24.619Z,54.60
2023-04-04T01:48:57.985Z,54.50
2023-04-04T01:50:35.693Z,54.50
2023-04-04T01:52:09.402Z,54.50
2023-04-04T01:53:42.736Z,54.60
2023-04-04T01:55:16.138Z,54.70
2023-04-04T01:56:49.728Z,54.90
2023-04-04T01:58:23.590Z,54.70
2023-04-04T01:59:57.198Z,54.80
2023-04-04T02:01:30.818Z,54.80
2023-04-04T02:03:04.068Z,54.80
2023-04-04T02:04:37.486Z,54.70
2023-04-04T02:06:09.736Z,54.70
2023-04-04T02:07:43.122Z,54.90
2023-04-04T02:09:26.459Z,54.90
2023-04-04T02:11:00.174Z,54.80
2023-04-04T02:12:35.363Z,54.90
2023-04-04T02:14:08.645Z,55.50
2023-04-04T02:15:42.569Z,55.40
2023-04-04T02:17:15.178Z,54.90
2023-04-04T02:18:48.718Z,54.80
2023-04-04T02:20:21.956Z,54.80
2023-04-04T02:21:54.205Z,54.80
2023-04-04T02:23:27.322Z,54.80
2023-04-04T02:25:02.683Z,54.80
2023-04-04T02:26:36.010Z,54.80
2023-04-04T02:28:11.414Z,54.70
2023-04-04T02:29:44.625Z,54.80
2023-04-04T02:31:17.906Z,54.80
2023-04-04T02:32:50.652Z,54.70
2023-04-04T02:34:26.453Z,54.90
2023-04-04T02:35:59.143Z,55.40
2023-04-04T02:37:32.329Z,54.90
2023-04-04T02:39:05.963Z,54.80
2023-04-04T02:40:41.471Z,54.80
2023-04-04T02:42:15.452Z,54.90
2023-04-04T02:43:49.935Z,54.90
2023-04-04T02:45:23.261Z,54.90
2023-04-04T02:47:07.280Z,55.00
2023-04-04T02:48:39.848Z,55.20
2023-04-04T02:50:13.616Z,55.10
2023-04-04T02:51:46.807Z,55.10
2023-04-04T02:53:19.926Z,55.00
2023-04-04T02:54:55.362Z,55.50
2023-04-04T02:56:38.367Z,54.90
2023-04-04T02:58:11.585Z,55.00
2023-04-04T02:59:46.364Z,55.00
2023-04-04T03:01:19.665Z,55.00
2023-04-04T03:02:56.368Z,54.90
2023-04-04T03:04:36.545Z,55.00
2023-04-04T03:06:08.790Z,54.90
2023-04-04T03:07:42.076Z,54.80
2023-04-04T03:09:15.930Z,54.80
2023-04-04T03:10:49.158Z,54.80
2023-04-04T03:12:22.455Z,54.80
2023-04-04T03:13:57.112Z,54.80
2023-04-04T03:15:47.391Z,54.80
2023-04-04T03:17:22.170Z,54.90
2023-04-04T03:18:56.675Z,55.00
2023-04-04T03:20:31.313Z,55.00
2023-04-04T03:22:04.437Z,55.10
2023-04-04T03:23:40.504Z,55.00
2023-04-04T03:25:13.718Z,55.00
2023-04-04T03:26:47.099Z,55.00
2023-04-04T03:28:20.232Z,55.00
2023-04-04T03:29:53.834Z,55.00
2023-04-04T03:31:28.402Z,55.00
2023-04-04T03:33:08.313Z,55.10
2023-04-04T03:34:41.486Z,55.30
2023-04-04T03:36:14.760Z,55.20
2023-04-04T03:37:47.942Z,55.20
2023-04-04T03:39:20.251Z,55.20
2023-04-04T03:41:03.219Z,55.20
2023-04-04T03:42:36.947Z,55.40
2023-04-04T03:44:14.789Z,55.20
2023-04-04T03:45:49.166Z,55.20
2023-04-04T03:47:23.676Z,55.20
2023-04-04T03:48:56.952Z,55.10
2023-04-04T03:50:31.157Z,55.10
2023-04-04T03:52:05.193Z,55.20
2023-04-04T03:53:38.414Z,55.20
2023-04-04T03:55:11.933Z,55.10
2023-04-04T03:56:45.361Z,55.20
2023-04-04T03:58:17.685Z,55.30
2023-04-04T03:59:51.010Z,55.30
2023-04-04T04:01:24.829Z,55.30
2023-04-04T04:02:59.316Z,55.40
2023-04-04T04:04:32.594Z,55.50
2023-04-04T04:06:06.188Z,55.30
2023-04-04T04:07:39.466Z,55.50
2023-04-04T04:09:12.650Z,55.40
2023-04-04T04:10:45.935Z,55.40
2023-04-04T04:12:19.158Z,55.20
2023-04-04T04:13:52.587Z,55.20
2023-04-04T04:15:26.031Z,55.20
2023-04-04T04:16:59.412Z,55.10
2023-04-04T04:18:33.477Z,55.20
2023-04-04T04:20:09.428Z,55.30
2023-04-04T04:21:47.959Z,55.50
2023-04-04T04:23:21.044Z,55.40
2023-04-04T04:24:56.580Z,55.50
2023-04-04T04:26:29.707Z,55.40
2023-04-04T04:28:03.016Z,55.50
2023-04-04T04:29:36.612Z,55.50
2023-04-04T04:31:11.625Z,55.50
2023-04-04T04:32:52.238Z,55.50
2023-04-04T04:34:31.038Z,55.40
2023-04-04T04:36:08.653Z,55.50
2023-04-04T04:37:53.025Z,55.70
2023-04-04T04:39:27.443Z,55.70
2023-04-04T04:41:11.443Z,55.60
2023-04-04T04:42:51.256Z,55.60
2023-04-04T04:44:28.096Z,55.50
2023-04-04T04:46:02.573Z,55.40
2023-04-04T04:47:35.826Z,55.40
2023-04-04T04:49:11.807Z,55.30
2023-04-04T04:50:46.994Z,55.40
2023-04-04T04:52:22.269Z,55.50
2023-04-04T04:53:55.381Z,55.40
2023-04-04T04:55:30.652Z,55.50
2023-04-04T04:57:12.012Z,55.50
2023-04-04T04:58:50.989Z,55.50
2023-04-04T05:00:29.126Z,55.50
2023-04-04T05:02:02.370Z,55.50
2023-04-04T05:03:36.278Z,55.50
2023-04-04T05:05:12.512Z,55.60
2023-04-04T05:06:47.481Z,55.60
2023-04-04T05:08:20.848Z,55.50
2023-04-04T05:10:11.228Z,55.50
2023-04-04T05:11:44.520Z,55.60
2023-04-04T05:13:19.103Z,55.60
2023-04-04T05:14:54.370Z,55.60
2023-04-04T05:16:27.711Z,55.60
2023-04-04T05:18:04.010Z,55.60
2023-04-04T05:19:37.298Z,55.60
2023-04-04T05:21:11.153Z,55.70
2023-04-04T05:22:46.661Z,55.70
2023-04-04T05:24:24.819Z,55.80
2023-04-04T05:25:58.081Z,55.70
2023-04-04T05:27:35.433Z,55.80
2023-04-04T05:29:09.101Z,55.70
2023-04-04T05:30:46.655Z,55.80
2023-04-04T05:32:23.979Z,55.90
2023-04-04T05:34:08.545Z,56.00
2023-04-04T05:35:42.809Z,56.00
2023-04-04T05:37:17.106Z,56.00
2023-04-04T05:38:55.449Z,56.10
2023-04-04T05:40:32.017Z,56.10
2023-04-04T05:42:12.754Z,56.00
2023-04-04T05:43:52.308Z,56.20
2023-04-04T05:45:29.061Z,56.20
2023-04-04T05:47:02.598Z,56.30
2023-04-04T05:48:35.797Z,56.30
2023-04-04T05:50:09.922Z,56.30
2023-04-04T05:51:44.819Z,56.40
2023-04-04T05:53:21.002Z,56.30
2023-04-04T05:54:58.103Z,56.30
2023-04-04T05:56:35.527Z,56.40
2023-04-04T05:58:12.607Z,56.50
2023-04-04T05:59:56.653Z,56.50
2023-04-04T06:01:30.589Z,56.60
2023-04-04T06:03:06.161Z,56.60
2023-04-04T06:04:41.173Z,56.60
2023-04-04T06:06:16.530Z,56.60
2023-04-04T06:07:49.656Z,56.50
2023-04-04T06:09:22.816Z,56.60
2023-04-04T06:10:57.255Z,56.50
2023-04-04T06:12:30.435Z,56.60
2023-04-04T06:14:03.621Z,56.60
2023-04-04T06:15:36.914Z,56.70
2023-04-04T06:17:09.975Z,56.70
2023-04-04T06:18:43.114Z,56.70
2023-04-04T06:20:16.281Z,56.90
2023-04-04T06:21:49.517Z,57.00
2023-04-04T06:23:22.735Z,57.00
2023-04-04T06:24:57.194Z,56.90
2023-04-04T06:26:33.817Z,56.90
2023-04-04T06:28:09.231Z,57.00
2023-04-04T06:29:42.714Z,57.10
2023-04-04T06:31:16.035Z,57.20
2023-04-04T06:32:49.375Z,57.20
2023-04-04T06:34:26.234Z,57.40
2023-04-04T06:36:02.634Z,57.50
2023-04-04T06:37:40.617Z,57.50
2023-04-04T06:39:23.364Z,57.70
2023-04-04T06:40:58.812Z,57.80
2023-04-04T06:42:33.947Z,57.90
2023-04-04T06:44:10.262Z,57.80
2023-04-04T06:45:43.638Z,57.90
2023-04-04T06:47:17.700Z,57.80
2023-04-04T06:48:51.085Z,57.90
2023-04-04T06:50:24.627Z,57.70
2023-04-04T06:51:58.670Z,57.90
2023-04-04T06:53:34.320Z,57.80
2023-04-04T06:55:09.012Z,57.90
2023-04-04T06:56:44.189Z,58.00
2023-04-04T06:58:18.853Z,58.00
2023-04-04T06:59:52.106Z,57.90
2023-04-04T07:01:26.873Z,57.90
2023-04-04T07:03:12.123Z,58.10
2023-04-04T07:04:45.363Z,58.20
2023-04-04T07:06:19.458Z,58.20
2023-04-04T07:07:54.469Z,58.20
2023-04-04T07:09:29.552Z,58.10
2023-04-04T07:11:03.059Z,58.10
2023-04-04T07:12:36.257Z,58.00
2023-04-04T07:14:10.719Z,58.10
2023-04-04T07:15:48.999Z,58.20
2023-04-04T07:17:25.186Z,58.40
2023-04-04T07:18:58.954Z,58.30
2023-04-04T07:20:32.176Z,58.20
2023-04-04T07:22:06.075Z,58.10
2023-04-04T07:23:39.170Z,58.20
2023-04-04T07:25:13.438Z,58.30
2023-04-04T07:26:47.692Z,58.20
2023-04-04T07:28:21.781Z,58.00
2023-04-04T07:29:56.335Z,57.70
2023-04-04T07:31:29.562Z,57.50
2023-04-04T07:33:04.474Z,57.60
2023-04-04T07:34:37.784Z,57.80
2023-04-04T07:36:10.967Z,57.60
2023-04-04T07:37:44.467Z,57.50
2023-04-04T07:39:17.797Z,57.70
2023-04-04T07:40:51.850Z,57.80
2023-04-04T07:42:25.262Z,57.80
2023-04-04T07:43:58.474Z,57.50
2023-04-04T07:45:32.884Z,57.40
2023-04-04T07:47:10.339Z,57.30
2023-04-04T07:48:43.694Z,57.30
2023-04-04T07:50:17.771Z,57.10
2023-04-04T07:51:50.928Z,56.90
2023-04-04T07:53:24.104Z,56.70
2023-04-04T07:54:57.235Z,56.70
2023-04-04T07:56:30.405Z,56.60
2023-04-04T07:58:03.567Z,56.20
2023-04-04T07:59:37.018Z,55.80
2023-04-04T08:01:11.452Z,55.20
2023-04-04T08:02:46.077Z,54.30
2023-04-04T08:04:19.728Z,53.50
2023-04-04T08:05:52.972Z,53.10
2023-04-04T08:07:27.127Z,52.90
2023-04-04T08:09:01.348Z,53.00
2023-04-04T08:10:34.590Z,52.90
2023-04-04T08:12:08.330Z,52.30
2023-04-04T08:13:41.583Z,52.20
2023-04-04T08:15:14.790Z,51.90
2023-04-04T08:16:49.492Z,51.60
2023-04-04T08:18:22.676Z,50.90
2023-04-04T08:19:55.978Z,50.70
2023-04-04T08:21:29.165Z,50.60
2023-04-04T08:23:02.435Z,50.40
2023-04-04T08:24:36.621Z,50.10
2023-04-04T08:26:09.720Z,49.70
2023-04-04T08:27:44.943Z,49.40
2023-04-04T08:29:18.518Z,49.40
2023-04-04T08:30:55.117Z,49.30
2023-04-04T08:32:29.624Z,48.60
2023-04-04T08:34:03.011Z,47.90
2023-04-04T08:35:36.462Z,47.60
2023-04-04T08:37:10.625Z,47.60
2023-04-04T08:38:44.538Z,47.40
2023-04-04T08:40:19.192Z,46.90
2023-04-04T08:42:02.569Z,46.80
2023-04-04T08:43:38.383Z,46.30
2023-04-04T08:45:13.304Z,46.20
2023-04-04T08:46:58.104Z,45.50
2023-04-04T08:48:36.729Z,44.80
2023-04-04T08:50:10.191Z,45.70
2023-04-04T08:51:46.741Z,45.00
2023-04-04T08:53:20.998Z,44.40
2023-04-04T08:54:56.621Z,43.40
2023-04-04T08:56:32.606Z,43.60
2023-04-04T08:58:06.200Z,43.60
2023-04-04T08:59:40.241Z,42.30
2023-04-04T09:01:13.760Z,42.80
2023-04-04T09:02:57.681Z,42.80
2023-04-04T09:04:33.017Z,42.80
2023-04-04T09:06:07.276Z,42.70
2023-04-04T09:07:41.624Z,42.50
2023-04-04T09:09:17.753Z,41.60
2023-04-04T09:10:52.333Z,40.80
2023-04-04T09:12:27.239Z,40.40
2023-04-04T09:14:04.643Z,40.50
2023-04-04T09:15:41.262Z,40.50
2023-04-04T09:17:14.450Z,40.60
2023-04-04T09:18:47.897Z,40.50
2023-04-04T09:20:43.718Z,40.40
2023-04-04T09:22:18.429Z,39.30
2023-04-04T09:24:00.587Z,40.20
2023-04-04T09:25:34.324Z,39.80
2023-04-04T09:27:10.471Z,39.80
2023-04-04T09:28:43.585Z,39.70
2023-04-04T09:30:17.705Z,40.50
2023-04-04T09:31:51.940Z,39.80
2023-04-04T09:33:25.520Z,39.20
2023-04-04T09:34:58.892Z,39.30
2023-04-04T09:36:33.531Z,39.00
2023-04-04T09:38:07.852Z,39.10
2023-04-04T09:39:43.442Z,39.10
2023-04-04T09:41:17.685Z,39.00
2023-04-04T09:42:51.382Z,38.70
2023-04-04T09:44:25.876Z,38.70
2023-04-04T09:46:00.244Z,38.70
2023-04-04T09:47:33.936Z,39.40
2023-04-04T09:49:13.303Z,38.40
2023-04-04T09:50:48.038Z,38.20
2023-04-04T09:52:22.557Z,38.10
2023-04-04T09:53:59.391Z,38.00
2023-04-04T09:55:37.472Z,38.40
2023-04-04T09:57:11.618Z,38.00
2023-04-04T09:59:02.384Z,38.10
2023-04-04T10:00:44.962Z,37.80
2023-04-04T10:02:18.660Z,37.60
2023-04-04T10:03:54.322Z,37.90
2023-04-04T10:05:28.832Z,37.80
2023-04-04T10:07:02.123Z,37.90
2023-04-04T10:08:41.376Z,37.60
2023-04-04T10:10:16.469Z,37.10
2023-04-04T10:11:49.562Z,37.20
2023-04-04T10:13:25.851Z,37.20
2023-04-04T10:14:59.832Z,37.20
2023-04-04T10:16:34.860Z,36.80
2023-04-04T10:18:09.901Z,36.90
2023-04-04T10:19:45.109Z,36.70
2023-04-04T10:21:19.261Z,36.50
2023-04-04T10:22:52.823Z,36.30
2023-04-04T10:24:27.636Z,36.10
2023-04-04T10:26:01.516Z,35.60
2023-04-04T10:27:35.139Z,35.80
2023-04-04T10:29:08.768Z,36.00
2023-04-04T10:31:03.143Z,36.10
2023-04-04T10:32:53.909Z,36.00
2023-04-04T10:34:38.154Z,36.00
2023-04-04T10:36:15.407Z,35.70
2023-04-04T10:37:58.440Z,35.80
2023-04-04T10:39:39.445Z,35.60
2023-04-04T10:41:15.318Z,35.40
2023-04-04T10:42:52.085Z,35.00
2023-04-04T10:44:33.610Z,35.00
2023-04-04T10:46:13.427Z,34.80
2023-04-04T10:47:47.286Z,34.30
2023-04-04T10:49:22.342Z,34.60
2023-04-04T10:50:57.109Z,34.80
2023-04-04T10:52:32.210Z,34.80
2023-04-04T10:54:06.300Z,35.10
2023-04-04T10:55:42.481Z,34.60
2023-04-04T10:57:17.599Z,34.20
2023-04-04T10:58:51.335Z,34.60
2023-04-04T11:00:25.341Z,34.40
2023-04-04T11:02:00.769Z,34.10
2023-04-04T11:03:54.534Z,34.20
2023-04-04T11:05:34.549Z,34.20
2023-04-04T11:07:17.387Z,34.20
2023-04-04T11:08:56.072Z,34.00
2023-04-04T11:10:31.856Z,33.70
2023-04-04T11:12:19.856Z,33.90
2023-04-04T11:14:01.808Z,33.80
2023-04-04T11:15:52.554Z,33.30
2023-04-04T11:17:51.089Z,33.50
2023-04-04T11:19:25.392Z,33.50
2023-04-04T11:21:03.452Z,34.00
2023-04-04T11:22:37.814Z,33.50
2023-04-04T11:24:18.866Z,33.50
2023-04-04T11:25:53.893Z,32.90
2023-04-04T11:27:26.086Z,33.00
2023-04-04T11:29:01.234Z,33.00
2023-04-04T11:30:44.513Z,33.10
2023-04-04T11:32:50.167Z,32.80
2023-04-04T11:34:34.515Z,32.10
2023-04-04T11:36:25.584Z,33.10
2023-04-04T11:38:02.943Z,32.90
2023-04-04T11:39:56.565Z,32.70
2023-04-04T11:41:45.136Z,32.10
2023-04-04T11:43:20.330Z,32.10
2023-04-04T11:45:05.752Z,32.60
2023-04-04T11:46:39.798Z,32.00
2023-04-04T11:48:16.897Z,32.60
2023-04-04T11:49:52.529Z,32.50
2023-04-04T11:51:27.296Z,32.60
2023-04-04T11:53:00.311Z,32.70
2023-04-04T11:54:33.532Z,32.70
2023-04-04T11:56:07.289Z,32.80
2023-04-04T11:57:43.234Z,32.30
2023-04-04T11:59:21.556Z,31.60
2023-04-04T12:00:55.163Z,31.70
2023-04-04T12:02:32.066Z,32.00
2023-04-04T12:04:06.193Z,31.70
2023-04-04T12:05:40.315Z,31.60
2023-04-04T12:07:15.818Z,31.60
2023-04-04T12:08:50.126Z,31.30
2023-04-04T12:10:23.662Z,31.50
2023-04-04T12:11:57.933Z,31.10
2023-04-04T12:13:32.960Z,31.20
2023-04-04T12:15:16.977Z,31.00
2023-04-04T12:16:54.463Z,31.20
2023-04-04T12:18:28.336Z,31.10
2023-04-04T12:20:02.086Z,31.10
2023-04-04T12:21:35.418Z,31.10
2023-04-04T12:23:10.485Z,30.80
2023-04-04T12:24:43.679Z,30.80
2023-04-04T12:26:18.957Z,30.80
2023-04-04T12:27:54.516Z,30.70
2023-04-04T12:29:35.912Z,30.90
2023-04-04T12:31:10.501Z,30.80
2023-04-04T12:32:45.410Z,30.70
2023-04-04T12:34:19.749Z,30.70
2023-04-04T12:35:54.641Z,30.60
2023-04-04T12:37:30.486Z,30.50
2023-04-04T12:39:09.134Z,30.40
2023-04-04T12:40:42.467Z,30.70
2023-04-04T12:42:23.206Z,30.70
2023-04-04T12:44:03.787Z,30.90
2023-04-04T12:45:40.801Z,31.60
2023-04-04T12:47:17.932Z,31.40
2023-04-04T12:48:51.503Z,31.60
2023-04-04T12:50:28.378Z,31.30
2023-04-04T12:52:04.757Z,31.40
2023-04-04T12:53:53.442Z,31.30
2023-04-04T12:55:32.252Z,30.90
2023-04-04T12:57:08.038Z,31.30
2023-04-04T12:58:41.265Z,31.40
2023-04-04T13:00:15.723Z,31.20
2023-04-04T13:01:49.786Z,31.20
2023-04-04T13:03:26.034Z,30.90
2023-04-04T13:05:00.888Z,30.80
2023-04-04T13:06:34.336Z,30.90
2023-04-04T13:08:08.748Z,30.80
2023-04-04T13:09:54.552Z,31.00
2023-04-04T13:12:01.915Z,30.30
2023-04-04T13:13:37.451Z,30.30
2023-04-04T13:15:11.673Z,30.80
2023-04-04T13:16:45.365Z,30.60
2023-04-04T13:18:22.596Z,30.60
2023-04-04T13:19:56.020Z,30.50
2023-04-04T13:21:29.197Z,30.30
2023-04-04T13:23:02.302Z,30.10
2023-04-04T13:24:35.490Z,30.10
2023-04-04T13:26:10.587Z,30.00
2023-04-04T13:27:45.341Z,30.50
2023-04-04T13:29:18.360Z,30.40
2023-04-04T13:30:51.579Z,30.10
2023-04-04T13:32:24.980Z,30.70
2023-04-04T13:33:58.211Z,30.60
2023-04-04T13:35:32.112Z,30.40
2023-04-04T13:37:05.265Z,30.00
2023-04-04T13:38:38.535Z,30.00
2023-04-04T13:40:12.574Z,29.90
2023-04-04T13:41:45.698Z,30.00
2023-04-04T13:43:20.210Z,30.00
2023-04-04T13:44:53.381Z,29.80
2023-04-04T13:46:26.523Z,29.80
2023-04-04T13:47:59.692Z,29.70
2023-04-04T13:49:32.797Z,29.80
2023-04-04T13:51:05.947Z,29.70
2023-04-04T13:52:39.016Z,29.90
2023-04-04T13:54:12.831Z,29.90
2023-04-04T13:56:01.599Z,29.70
2023-04-04T13:57:39.314Z,29.70
2023-04-04T13:59:17.665Z,29.90
2023-04-04T14:00:51.108Z,29.90
2023-04-04T14:02:24.505Z,30.10
2023-04-04T14:03:57.775Z,30.00
2023-04-04T14:05:30.878Z,29.90
2023-04-04T14:07:04.026Z,30.00
2023-04-04T14:08:37.183Z,29.90
2023-04-04T14:10:12.317Z,29.90
2023-04-04T14:11:47.306Z,29.80
2023-04-04T14:13:20.707Z,29.60
2023-04-04T14:14:55.193Z,29.50
2023-04-04T14:16:28.348Z,29.60
2023-04-04T14:18:01.502Z,29.80
2023-04-04T14:19:34.757Z,29.90
2023-04-04T14:21:08.173Z,29.80
2023-04-04T14:22:41.469Z,29.60
2023-04-04T14:24:14.598Z,29.40
2023-04-04T14:25:49.652Z,29.60
2023-04-04T14:27:22.737Z,29.60
2023-04-04T14:28:55.861Z,29.40
2023-04-04T14:30:30.606Z,29.60
2023-04-04T14:32:03.971Z,29.30
2023-04-04T14:33:37.159Z,29.40
2023-04-04T14:35:10.917Z,29.10
2023-04-04T14:36:44.102Z,29.50
2023-04-04T14:38:17.714Z,29.50
2023-04-04T14:39:50.841Z,29.60
2023-04-04T14:41:24.125Z,29.40
2023-04-04T14:42:57.252Z,29.50
2023-04-04T14:44:31.096Z,29.60
2023-04-04T14:46:07.433Z,29.40
2023-04-04T14:47:41.216Z,29.50
2023-04-04T14:49:14.508Z,29.50
2023-04-04T14:50:48.059Z,29.20
2023-04-04T14:52:21.171Z,29.20
2023-04-04T14:53:54.534Z,29.10
2023-04-04T14:55:28.057Z,28.90
2023-04-04T14:57:02.373Z,28.90
2023-04-04T14:58:35.919Z,29.10
2023-04-04T15:00:15.882Z,29.00
2023-04-04T15:01:50.715Z,29.00
2023-04-04T15:03:30.138Z,28.70
2023-04-04T15:05:03.323Z,28.70
2023-04-04T15:06:38.137Z,28.70
2023-04-04T15:08:11.155Z,28.90
2023-04-04T15:09:44.407Z,29.10
2023-04-04T15:11:18.686Z,29.30
2023-04-04T15:12:51.880Z,29.00
2023-04-04T15:14:25.032Z,28.90
2023-04-04T15:16:00.356Z,29.00
2023-04-04T15:17:34.984Z,28.90
2023-04-04T15:19:09.897Z,28.60
2023-04-04T15:20:43.373Z,28.60
2023-04-04T15:22:16.741Z,28.90
2023-04-04T15:23:49.849Z,28.80
2023-04-04T15:25:23.158Z,29.30
2023-04-04T15:26:57.773Z,28.80
2023-04-04T15:28:30.915Z,28.50
2023-04-04T15:30:04.693Z,28.50
2023-04-04T15:31:38.139Z,28.90
2023-04-04T15:33:12.913Z,28.60
2023-04-04T15:34:46.226Z,28.50
2023-04-04T15:36:19.444Z,28.40
2023-04-04T15:37:52.808Z,28.20
2023-04-04T15:39:26.178Z,28.30
2023-04-04T15:40:59.483Z,28.40
2023-04-04T15:42:32.815Z,28.40
2023-04-04T15:44:06.680Z,28.30
2023-04-04T15:45:39.943Z,28.50
2023-04-04T15:47:13.205Z,29.00
2023-04-04T15:48:48.198Z,28.50
2023-04-04T15:50:21.637Z,28.30
2023-04-04T15:51:54.834Z,28.40
2023-04-04T15:53:27.946Z,28.30
2023-04-04T15:55:01.126Z,28.50
2023-04-04T15:56:34.307Z,28.80
2023-04-04T15:58:07.359Z,28.80
2023-04-04T15:59:40.583Z,29.00
2023-04-04T16:01:13.792Z,28.90
2023-04-04T16:02:47.210Z,28.60
2023-04-04T16:04:21.757Z,28.50
2023-04-04T16:05:54.950Z,28.90
2023-04-04T16:07:28.129Z,29.00
2023-04-04T16:09:01.595Z,29.20
2023-04-04T16:10:34.741Z,29.20
2023-04-04T16:12:07.884Z,29.10
2023-04-04T16:13:41.441Z,29.20
2023-04-04T16:15:14.613Z,29.10
2023-04-04T16:16:48.393Z,29.10
2023-04-04T16:18:21.503Z,29.00
2023-04-04T16:19:55.890Z,29.20
2023-04-04T16:21:28.999Z,29.10
2023-04-04T16:23:02.107Z,29.20
2023-04-04T16:24:35.670Z,29.10
2023-04-04T16:26:09.304Z,29.10
2023-04-04T16:27:42.537Z,29.60
2023-04-04T16:29:17.600Z,30.00
2023-04-04T16:30:50.999Z,30.10
2023-04-04T16:32:24.345Z,30.00
2023-04-04T16:33:57.521Z,30.00
2023-04-04T16:35:32.740Z,30.00
2023-04-04T16:37:06.267Z,30.30
2023-04-04T16:38:39.612Z,30.00
2023-04-04T16:40:14.839Z,29.90
2023-04-04T16:41:48.622Z,29.70
2023-04-04T16:43:21.968Z,29.70
2023-04-04T16:44:55.147Z,29.50
2023-04-04T16:46:28.418Z,29.50
2023-04-04T16:48:01.568Z,29.60
2023-04-04T16:49:34.784Z,29.70
2023-04-04T16:51:09.216Z,30.00
2023-04-04T16:52:42.422Z,30.30
2023-04-04T16:54:15.619Z,30.50
2023-04-04T16:55:48.710Z,30.80
2023-04-04T16:57:21.862Z,31.10
2023-04-04T16:58:55.255Z,31.00
2023-04-04T17:00:28.956Z,30.90
2023-04-04T17:02:05.127Z,30.80
2023-04-04T17:03:38.232Z,30.70
2023-04-04T17:05:11.760Z,30.90
2023-04-04T17:06:47.071Z,31.00
2023-04-04T17:08:20.251Z,31.10
2023-04-04T17:09:53.304Z,31.50
2023-04-04T17:11:27.059Z,31.60
2023-04-04T17:13:00.690Z,31.50
2023-04-04T17:14:34.135Z,31.60
2023-04-04T17:16:08.146Z,31.30
2023-04-04T17:17:42.355Z,31.60
2023-04-04T17:19:15.539Z,31.80
2023-04-04T17:20:49.002Z,32.00
2023-04-04T17:22:23.558Z,32.20
2023-04-04T17:23:56.777Z,32.80
2023-04-04T17:25:30.873Z,33.10
2023-04-04T17:27:04.136Z,33.00
2023-04-04T17:28:37.499Z,32.60
2023-04-04T17:30:12.705Z,32.90
2023-04-04T17:31:48.689Z,33.30
2023-04-04T17:33:23.150Z,33.10
2023-04-04T17:34:56.453Z,33.00
2023-04-04T17:36:30.956Z,33.00
2023-04-04T17:38:05.782Z,33.50
2023-04-04T17:39:39.359Z,33.80
2023-04-04T17:41:14.039Z,33.90
2023-04-04T17:42:47.236Z,34.10
2023-04-04T17:44:22.097Z,34.00
2023-04-04T17:45:55.091Z,34.40
2023-04-04T17:47:28.307Z,35.00
2023-04-04T17:49:01.565Z,34.70
2023-04-04T17:50:34.643Z,35.20
2023-04-04T17:52:08.739Z,35.40
2023-04-04T17:53:43.142Z,35.60
2023-04-04T17:55:17.791Z,35.60
2023-04-04T17:56:50.923Z,35.80
2023-04-04T17:58:25.695Z,35.90
2023-04-04T17:59:58.797Z,36.10
2023-04-04T18:01:31.988Z,36.20
2023-04-04T18:03:05.811Z,36.30
2023-04-04T18:04:39.549Z,36.50
2023-04-04T18:06:12.759Z,36.50
2023-04-04T18:07:46.143Z,36.70
2023-04-04T18:09:20.729Z,36.80
2023-04-04T18:10:53.897Z,37.00
2023-04-04T18:12:29.980Z,37.10
2023-04-04T18:14:03.664Z,37.20
2023-04-04T18:15:37.165Z,37.30
2023-04-04T18:17:10.743Z,37.50
2023-04-04T18:18:43.857Z,37.60
2023-04-04T18:20:27.835Z,37.90
2023-04-04T18:22:05.223Z,38.10
2023-04-04T18:23:38.404Z,38.10
2023-04-04T18:25:13.001Z,38.50
2023-04-04T18:26:46.296Z,38.70
2023-04-04T18:28:19.623Z,38.80
2023-04-04T18:29:54.916Z,39.00
2023-04-04T18:31:28.451Z,39.10
2023-04-04T18:33:05.142Z,39.20
2023-04-04T18:34:38.898Z,39.50
2023-04-04T18:36:12.199Z,39.50
2023-04-04T18:37:45.383Z,39.50
2023-04-04T18:39:18.586Z,39.80
2023-04-04T18:40:53.107Z,39.90
2023-04-04T18:42:26.514Z,40.00
2023-04-04T18:43:59.890Z,40.50
2023-04-04T18:45:39.921Z,39.90
2023-04-04T18:47:14.126Z,40.10
2023-04-04T18:48:47.373Z,40.00
2023-04-04T18:50:21.333Z,39.80
2023-04-04T18:51:54.811Z,39.80
2023-04-04T18:53:29.659Z,39.90
2023-04-04T18:55:28.866Z,39.70
2023-04-04T18:57:04.064Z,40.20
2023-04-04T18:58:38.446Z,40.10
2023-04-04T19:00:16.462Z,40.50
2023-04-04T19:03:08.082Z,40.20
2023-04-04T19:04:42.120Z,40.80
2023-04-04T19:06:16.536Z,40.40
2023-04-04T19:08:10.600Z,40.50
2023-04-04T19:09:46.431Z,40.80
2023-04-04T19:11:21.267Z,41.60
2023-04-04T19:12:56.177Z,41.50
2023-04-04T19:14:29.586Z,41.50
2023-04-04T19:16:03.627Z,41.80
2023-04-04T19:17:37.145Z,42.00
2023-04-04T19:19:10.977Z,42.20
2023-04-04T19:20:44.339Z,42.30
2023-04-04T19:22:17.677Z,42.60
2023-04-04T19:23:51.163Z,42.80
2023-04-04T19:25:24.545Z,43.00
2023-04-04T19:26:58.162Z,43.00
2023-04-04T19:28:32.837Z,43.10
2023-04-04T19:30:40.292Z,43.10
2023-04-04T19:32:19.454Z,43.40
2023-04-04T19:33:55.322Z,42.70
2023-04-04T19:35:53.720Z,43.30
2023-04-04T19:37:27.309Z,43.80
2023-04-04T19:39:00.672Z,43.40
2023-04-04T19:40:50.231Z,43.40
2023-04-04T19:42:29.680Z,43.90
2023-04-04T19:44:06.487Z,43.80
2023-04-04T19:45:49.685Z,43.80
2023-04-04T19:47:23.156Z,44.10
2023-04-04T19:48:57.586Z,43.90
2023-04-04T19:50:37.997Z,44.10
2023-04-04T19:52:11.300Z,44.30
2023-04-04T19:53:46.024Z,44.60
2023-04-04T19:55:40.178Z,44.10
2023-04-04T19:57:19.941Z,44.70
2023-04-04T19:58:56.173Z,44.50
2023-04-04T20:00:31.293Z,44.50
2023-04-04T20:02:07.933Z,44.50
2023-04-04T20:03:41.861Z,44.60
2023-04-04T20:05:55.603Z,44.70
2023-04-04T20:07:29.800Z,45.30
2023-04-04T20:09:12.690Z,44.90
2023-04-04T20:10:45.446Z,45.10
2023-04-04T20:12:24.136Z,45.00
2023-04-04T20:14:03.808Z,45.10
2023-04-04T20:16:01.055Z,45.20
2023-04-04T20:17:35.652Z,46.00
2023-04-04T20:19:09.564Z,46.10
2023-04-04T20:20:57.874Z,45.50
2023-04-04T20:22:31.464Z,45.90
2023-04-04T20:24:08.970Z,45.60
2023-04-04T20:25:42.787Z,45.80
2023-04-04T20:27:26.670Z,45.80
2023-04-04T20:28:59.969Z,45.80
2023-04-04T20:30:33.735Z,45.50
2023-04-04T20:32:09.859Z,45.70